Decoded Metar for KHHR (HAWTHORNE in CA, USA) (IATA:HHR) | Meteo·Mobile Aviation Weather
aviador You're here:

KHHR Decoded Metar

HAWTHORNE in CA, USA
Report Time2019-06-27 08:53:00
UTC Time2019-06-27 09:08:35
Flight Rules mvfr MVFR
WindCalm
Visibility9999 m
Phenomena:N/A
Clouds:Overcast 017 Hf
Expected CloudBase > 1,600 ft AGL from Temp-Dew spread
Ceiling1,700 ft
Temp18°C (ISA +3)
Dew Point14°C (78% RH)
QNH1015 hPa
Density Alt571 ft
Elevation59 ft
Report Wrong Elevation
Raw Report
KHHR 270853Z AUTO 00000KT 10SM OVC017 18/14 A2998 RMK AO2 SLP149
T01780139 58004=

Extra information for KHHR:More info

Metar Taf Metar & Taf Last 4 Metars F.Rules Stats Wind Profile Meteogram Temp Stats Airport Information Weather charts Add Link Nearby VenuesMetar ALERT Operation Metar Decoded Social comments

AIRNAV info for KHHR